Time;durP1;ratioP1;P1;durP2;ratioP2;P2;SDS_P1;SDS_P2;PMS_P1;PMS_P2;Temp;Humidity;BMP_temperature;BMP_pressure;BME280_temperature;BME280_humidity;BME280_pressure;Samples;Min_cycle;Max_cycle;Signal;HPM_P1;HPM_P2
2022/03/12 00:01:47;;;;;;;;;;;7.50;67.20;;;;;;5073277;28;19927;-86
2022/03/12 00:04:13;;;;;;;;;;;7.40;67.30;;;;;;5087679;22;19930;-86
2022/03/12 00:06:39;;;;;;;;;;;7.40;67.30;;;;;;5093581;28;19920;-86
2022/03/12 00:09:05;;;;;;;;;;;7.30;67.30;;;;;;5092473;28;20350;-86
2022/03/12 00:11:34;;;;;;;;;;;7.30;68.30;;;;;;5093610;28;19919;-86
2022/03/12 00:14:02;;;;;;;;;;;7.20;69.40;;;;;;5093374;28;19947;-86
2022/03/12 00:16:28;;;;;;;;;;;7.20;70.10;;;;;;5075451;28;19991;-86
2022/03/12 00:18:55;;;;;;;;;;;7.10;70.20;;;;;;5085270;28;20428;-86
2022/03/12 00:21:25;;;;;;;;;;;7.00;70.50;;;;;;5079402;28;19996;-86
2022/03/12 00:23:55;;;;;;;;;;;7.00;70.30;;;;;;5077380;28;20259;-86
2022/03/12 00:26:23;;;;;;;;;;;7.00;70.10;;;;;;5093125;28;20373;-86
2022/03/12 00:28:50;;;;;;;;;;;6.80;71.10;;;;;;5081307;28;19912;-86
2022/03/12 00:31:16;;;;;;;;;;;6.80;71.00;;;;;;5072607;28;20366;-87
2022/03/12 00:33:41;;;;;;;;;;;6.80;71.10;;;;;;5076791;28;19916;-86
2022/03/12 00:36:07;;;;;;;;;;;6.80;69.60;;;;;;5074053;28;19919;-86
2022/03/12 00:38:33;;;;;;;;;;;6.80;68.40;;;;;;5073154;28;19920;-86
2022/03/12 00:41:04;;;;;;;;;;;6.80;68.00;;;;;;5074045;28;20011;-87
2022/03/12 00:43:30;;;;;;;;;;;6.80;65.90;;;;;;5072982;28;19947;-87
2022/03/12 00:45:55;;;;;;;;;;;6.70;65.20;;;;;;5072875;28;20330;-86
2022/03/12 00:48:21;;;;;;;;;;;6.70;65.20;;;;;;5073180;28;19909;-86
2022/03/12 00:50:46;;;;;;;;;;;6.70;65.40;;;;;;5071617;28;19913;-86
2022/03/12 00:53:12;;;;;;;;;;;6.70;65.70;;;;;;5093003;28;19912;-87
2022/03/12 00:55:37;;;;;;;;;;;6.60;65.30;;;;;;5077591;28;19915;-86
2022/03/12 00:58:03;;;;;;;;;;;6.70;65.20;;;;;;5072831;28;19996;-87
2022/03/12 01:00:28;;;;;;;;;;;6.60;64.40;;;;;;5073838;28;20003;-87
2022/03/12 01:02:54;;;;;;;;;;;6.60;64.00;;;;;;5073022;28;19966;-87
2022/03/12 01:05:34;;;;;;;;;;;6.50;61.90;;;;;;5072583;28;20524;-87
2022/03/12 01:07:59;;;;;;;;;;;6.60;60.20;;;;;;5072625;28;20289;-87
2022/03/12 01:10:25;;;;;;;;;;;6.50;59.70;;;;;;5073656;28;19909;-87
2022/03/12 01:12:50;;;;;;;;;;;6.50;59.30;;;;;;5072705;28;19919;-87
2022/03/12 01:15:16;;;;;;;;;;;6.50;59.10;;;;;;5072680;28;19909;-88
2022/03/12 01:17:41;;;;;;;;;;;6.50;58.90;;;;;;5076970;28;19915;-87
2022/03/12 01:20:07;;;;;;;;;;;6.50;59.30;;;;;;5092791;28;19912;-87
2022/03/12 01:22:36;;;;;;;;;;;6.50;58.90;;;;;;5077951;28;19920;-87
2022/03/12 01:25:05;;;;;;;;;;;6.50;59.00;;;;;;5080663;28;19916;-87
2022/03/12 01:27:31;;;;;;;;;;;6.40;59.30;;;;;;5092621;28;19912;-88
2022/03/12 01:29:56;;;;;;;;;;;6.40;59.50;;;;;;5092537;28;19908;-87
2022/03/12 01:32:22;;;;;;;;;;;6.30;59.60;;;;;;5079688;28;19908;-87
2022/03/12 01:34:47;;;;;;;;;;;6.20;59.90;;;;;;5072472;28;19912;-87
2022/03/12 01:37:19;;;;;;;;;;;6.30;59.70;;;;;;5072408;28;19915;-87
2022/03/12 01:39:45;;;;;;;;;;;6.20;60.00;;;;;;5076106;28;20377;-87
2022/03/12 01:42:13;;;;;;;;;;;6.10;59.80;;;;;;5093626;28;20011;-87
2022/03/12 01:44:38;;;;;;;;;;;6.20;60.00;;;;;;5096438;28;19999;-87
2022/03/12 01:47:06;;;;;;;;;;;6.10;60.20;;;;;;5096303;28;20045;-88
2022/03/12 01:49:31;;;;;;;;;;;6.10;59.80;;;;;;5089462;28;19908;-88
2022/03/12 01:51:57;;;;;;;;;;;6.00;59.10;;;;;;5076032;28;20392;-87
2022/03/12 01:54:27;;;;;;;;;;;6.00;58.30;;;;;;5075757;28;20369;-88
2022/03/12 01:56:53;;;;;;;;;;;6.00;58.40;;;;;;5095174;28;19978;-88
2022/03/12 01:59:20;;;;;;;;;;;6.00;58.20;;;;;;5091326;28;19920;-88
2022/03/12 02:01:51;;;;;;;;;;;6.00;57.50;;;;;;5075581;28;19953;-88
2022/03/12 02:04:17;;;;;;;;;;;5.90;57.40;;;;;;5057506;28;19920;-88
2022/03/12 02:06:43;;;;;;;;;;;5.90;56.90;;;;;;5075487;28;19962;-87
2022/03/12 02:09:09;;;;;;;;;;;5.80;56.30;;;;;;5077747;28;19927;-87
2022/03/12 02:11:36;;;;;;;;;;;5.80;55.80;;;;;;5078865;28;19912;-88
2022/03/12 02:14:07;;;;;;;;;;;5.70;55.30;;;;;;5075396;28;19908;-88
2022/03/12 02:16:34;;;;;;;;;;;5.70;55.40;;;;;;5075311;28;19933;-88
2022/03/12 02:18:59;;;;;;;;;;;5.70;55.70;;;;;;5076051;28;19959;-87
2022/03/12 02:21:34;;;;;;;;;;;5.60;54.60;;;;;;5088765;28;20396;-88
2022/03/12 02:24:01;;;;;;;;;;;5.60;55.20;;;;;;5092877;28;19916;-88
2022/03/12 02:26:26;;;;;;;;;;;5.60;55.60;;;;;;5077716;28;19924;-88
2022/03/12 02:28:52;;;;;;;;;;;5.60;56.50;;;;;;5093574;28;19955;-88
2022/03/12 02:31:18;;;;;;;;;;;5.70;56.50;;;;;;5095442;28;19908;-88
2022/03/12 02:33:44;;;;;;;;;;;5.60;56.00;;;;;;5095250;28;19969;-88
2022/03/12 02:36:12;;;;;;;;;;;5.50;56.10;;;;;;5085125;28;19916;-88
2022/03/12 02:38:38;;;;;;;;;;;5.50;56.10;;;;;;5075460;28;19908;-88
2022/03/12 02:41:10;;;;;;;;;;;5.50;55.80;;;;;;5075948;28;19965;-88
2022/03/12 02:43:43;;;;;;;;;;;5.40;56.10;;;;;;5075913;28;19966;-88
2022/03/12 02:46:09;;;;;;;;;;;5.40;55.60;;;;;;5074757;28;19940;-88
2022/03/12 02:48:35;;;;;;;;;;;5.40;55.50;;;;;;5074788;28;19947;-88
2022/03/12 02:51:01;;;;;;;;;;;5.40;55.30;;;;;;5074676;28;19909;-88
2022/03/12 02:53:26;;;;;;;;;;;5.30;54.80;;;;;;5075154;28;19995;-88
2022/03/12 02:55:52;;;;;;;;;;;5.30;55.10;;;;;;5074548;28;19955;-88
2022/03/12 02:58:18;;;;;;;;;;;5.30;56.00;;;;;;5074566;28;19908;-88
2022/03/12 03:00:43;;;;;;;;;;;5.40;55.00;;;;;;5074738;28;19944;-88
2022/03/12 03:03:09;;;;;;;;;;;5.40;54.50;;;;;;5057335;28;19912;-88
2022/03/12 03:05:45;;;;;;;;;;;5.50;54.20;;;;;;5074305;28;19977;-88
2022/03/12 03:08:12;;;;;;;;;;;5.50;53.90;;;;;;5074335;28;19973;-88
2022/03/12 03:10:38;;;;;;;;;;;5.50;54.40;;;;;;5089802;28;19959;-88
2022/03/12 03:13:31;;;;;;;;;;;5.50;53.90;;;;;;5076268;28;20285;-87
2022/03/12 03:16:01;;;;;;;;;;;5.50;54.40;;;;;;5094436;28;19908;-88
2022/03/12 03:18:33;;;;;;;;;;;5.50;53.80;;;;;;5094401;28;19916;-88
2022/03/12 03:21:00;;;;;;;;;;;5.50;54.00;;;;;;5082480;28;19999;-88
2022/03/12 03:23:27;;;;;;;;;;;5.50;54.10;;;;;;5077825;28;19912;-88
2022/03/12 03:25:53;;;;;;;;;;;5.40;54.20;;;;;;5094228;28;20053;-87
2022/03/12 03:28:18;;;;;;;;;;;5.30;54.40;;;;;;5094115;28;19999;-88
2022/03/12 03:30:44;;;;;;;;;;;5.20;54.00;;;;;;5084416;28;20007;-87
2022/03/12 03:33:11;;;;;;;;;;;5.20;53.90;;;;;;5073847;28;20369;-88
2022/03/12 03:35:38;;;;;;;;;;;5.10;53.60;;;;;;5073847;28;19909;-87
2022/03/12 03:38:04;;;;;;;;;;;5.00;54.20;;;;;;5073722;28;20050;-87
2022/03/12 03:40:30;;;;;;;;;;;5.00;53.70;;;;;;5092699;28;20030;-87
2022/03/12 03:42:55;;;;;;;;;;;4.90;53.60;;;;;;5093909;28;20381;-87
2022/03/12 03:45:22;;;;;;;;;;;4.90;53.70;;;;;;5094157;28;20320;-87
2022/03/12 03:47:48;;;;;;;;;;;4.90;54.00;;;;;;5093692;28;19951;-88
2022/03/12 03:50:14;;;;;;;;;;;4.90;53.60;;;;;;5073808;28;20285;-88
2022/03/12 03:52:40;;;;;;;;;;;4.90;53.70;;;;;;5093682;28;20002;-88
2022/03/12 03:55:06;;;;;;;;;;;4.90;52.50;;;;;;5079548;28;20010;-88
2022/03/12 03:57:32;;;;;;;;;;;4.90;52.50;;;;;;5073320;28;20394;-88
2022/03/12 03:59:57;;;;;;;;;;;5.00;52.30;;;;;;5087305;28;19935;-87
2022/03/12 04:02:23;;;;;;;;;;;4.90;51.70;;;;;;5093575;28;19958;-87
2022/03/12 04:04:49;;;;;;;;;;;4.90;51.40;;;;;;5092590;28;20443;-88
2022/03/12 04:07:15;;;;;;;;;;;4.90;51.50;;;;;;5093395;28;20358;-87
2022/03/12 04:09:41;;;;;;;;;;;4.90;51.80;;;;;;5087245;28;19920;-87
2022/03/12 04:12:07;;;;;;;;;;;4.80;50.80;;;;;;5093106;28;19920;-87
2022/03/12 04:14:32;;;;;;;;;;;4.70;50.90;;;;;;5093332;28;19908;-87
2022/03/12 04:16:58;;;;;;;;;;;4.70;51.10;;;;;;5093351;28;19908;-87
2022/03/12 04:19:26;;;;;;;;;;;4.70;51.40;;;;;;5083877;28;19912;-87
2022/03/12 04:21:56;;;;;;;;;;;4.70;51.50;;;;;;5073173;28;20388;-88
2022/03/12 04:24:23;;;;;;;;;;;4.60;50.70;;;;;;5076502;28;19927;-87
2022/03/12 04:26:49;;;;;;;;;;;4.60;50.40;;;;;;5073027;28;20262;-87
2022/03/12 04:29:15;;;;;;;;;;;4.60;50.50;;;;;;5080535;28;20010;-88
2022/03/12 04:31:40;;;;;;;;;;;4.60;50.60;;;;;;5093367;28;19950;-88
2022/03/12 04:34:06;;;;;;;;;;;4.60;50.80;;;;;;5093177;28;19908;-87
2022/03/12 04:36:34;;;;;;;;;;;4.60;50.60;;;;;;5093125;28;19912;-87
2022/03/12 04:39:00;;;;;;;;;;;4.60;50.70;;;;;;5087553;28;19917;-87
2022/03/12 04:41:29;;;;;;;;;;;4.50;50.70;;;;;;5072971;28;20335;-87
2022/03/12 04:43:55;;;;;;;;;;;4.50;50.70;;;;;;5073231;28;20027;-87
2022/03/12 04:46:20;;;;;;;;;;;4.50;50.60;;;;;;5072842;28;20437;-88
2022/03/12 04:48:46;;;;;;;;;;;4.40;50.70;;;;;;5074244;28;20380;-88
2022/03/12 04:51:11;;;;;;;;;;;4.50;51.00;;;;;;5081206;28;20255;-87
2022/03/12 04:53:38;;;;;;;;;;;4.50;50.80;;;;;;5092521;28;20480;-88
2022/03/12 04:56:04;;;;;;;;;;;4.50;51.00;;;;;;5072818;28;19909;-88
2022/03/12 04:58:29;;;;;;;;;;;4.50;50.80;;;;;;5055866;28;19917;-87
2022/03/12 05:00:55;;;;;;;;;;;4.40;50.90;;;;;;5072784;28;19936;-87
2022/03/12 05:03:22;;;;;;;;;;;4.40;51.20;;;;;;5072955;28;19909;-87
2022/03/12 05:05:49;;;;;;;;;;;4.30;51.20;;;;;;5072804;28;19927;-87
2022/03/12 05:08:22;;;;;;;;;;;4.40;51.10;;;;;;5085163;28;19916;-88
2022/03/12 05:10:49;;;;;;;;;;;4.40;50.80;;;;;;5081810;28;19964;-87
2022/03/12 05:13:27;;;;;;;;;;;4.50;50.40;;;;;;5072660;28;19985;-87
2022/03/12 05:15:57;;;;;;;;;;;4.40;50.90;;;;;;5073721;28;19908;-87
2022/03/12 05:18:23;;;;;;;;;;;4.40;50.80;;;;;;5090386;28;20365;-87
2022/03/12 05:20:49;;;;;;;;;;;4.50;49.60;;;;;;5096601;28;19908;-87
2022/03/12 05:23:16;;;;;;;;;;;4.40;49.10;;;;;;5096604;28;19995;-88
2022/03/12 05:25:42;;;;;;;;;;;4.50;49.80;;;;;;5087735;28;20431;-87
2022/03/12 05:28:15;;;;;;;;;;;4.40;49.60;;;;;;5096390;28;19977;-87
2022/03/12 05:30:42;;;;;;;;;;;4.30;49.50;;;;;;5096304;28;19908;-88
2022/03/12 05:33:08;;;;;;;;;;;4.20;49.80;;;;;;5096423;28;19912;-87
2022/03/12 05:35:33;;;;;;;;;;;4.20;50.00;;;;;;5083119;28;19978;-87
2022/03/12 05:37:59;;;;;;;;;;;4.10;50.10;;;;;;5076014;28;20366;-87
2022/03/12 05:40:26;;;;;;;;;;;4.10;50.30;;;;;;5077288;28;19912;-88
2022/03/12 05:42:55;;;;;;;;;;;4.10;50.40;;;;;;5075986;28;19915;-87
2022/03/12 05:45:22;;;;;;;;;;;4.10;50.50;;;;;;5085940;28;19965;-87
2022/03/12 05:47:49;;;;;;;;;;;4.10;50.50;;;;;;5080684;28;19920;-87
2022/03/12 05:50:15;;;;;;;;;;;4.10;50.30;;;;;;5075895;28;19970;-87
2022/03/12 05:52:45;;;;;;;;;;;4.10;50.20;;;;;;5069210;28;20285;-87
2022/03/12 05:55:12;;;;;;;;;;;4.20;50.50;;;;;;5076924;28;19912;-87
2022/03/12 05:57:38;;;;;;;;;;;4.30;50.00;;;;;;5057330;28;19913;-87
2022/03/12 06:00:04;;;;;;;;;;;4.40;49.80;;;;;;5079130;28;19919;-87
2022/03/12 06:02:30;;;;;;;;;;;4.40;49.60;;;;;;5084357;28;19923;-87
2022/03/12 06:04:58;;;;;;;;;;;4.50;49.30;;;;;;5077120;28;19974;-87
2022/03/12 06:07:27;;;;;;;;;;;4.50;49.60;;;;;;5075218;28;19916;-87
2022/03/12 06:09:56;;;;;;;;;;;4.50;48.90;;;;;;5075066;28;19958;-87
2022/03/12 06:12:24;;;;;;;;;;;4.60;49.00;;;;;;5079282;28;19912;-87
2022/03/12 06:14:52;;;;;;;;;;;4.60;49.20;;;;;;5075458;28;19998;-87
2022/03/12 06:17:19;;;;;;;;;;;4.60;48.30;;;;;;5078265;28;19913;-87
2022/03/12 06:19:45;;;;;;;;;;;4.70;48.60;;;;;;5061182;28;19969;-87
2022/03/12 06:22:11;;;;;;;;;;;4.70;48.40;;;;;;5074890;28;19913;-86
2022/03/12 06:24:37;;;;;;;;;;;4.60;47.60;;;;;;5075172;28;19947;-86
2022/03/12 06:27:03;;;;;;;;;;;4.50;48.50;;;;;;5074388;28;19964;-86
2022/03/12 06:29:28;;;;;;;;;;;4.50;48.40;;;;;;5073204;28;19919;-87
2022/03/12 06:31:54;;;;;;;;;;;4.50;48.60;;;;;;5080260;28;19920;-87
2022/03/12 06:34:19;;;;;;;;;;;4.60;48.10;;;;;;5073430;28;20186;-86
2022/03/12 06:36:45;;;;;;;;;;;4.60;47.80;;;;;;5074220;28;19938;-87
2022/03/12 06:39:11;;;;;;;;;;;4.70;47.80;;;;;;5075059;28;19940;-87
2022/03/12 06:41:38;;;;;;;;;;;4.80;47.00;;;;;;5075370;28;19913;-86
2022/03/12 06:44:04;;;;;;;;;;;4.90;47.40;;;;;;5070986;28;19983;-86
2022/03/12 06:46:30;;;;;;;;;;;5.00;46.80;;;;;;5073128;28;21499;-86
2022/03/12 06:49:25;;;;;;;;;;;5.10;46.60;;;;;;5108383;27;20432;-86
2022/03/12 06:53:54;;;;;;;;;;;5.20;46.20;;;;;;5113816;27;19916;-86
2022/03/12 06:56:19;;;;;;;;;;;5.40;45.70;;;;;;5111126;28;20284;-86
2022/03/12 06:58:45;;;;;;;;;;;5.50;45.90;;;;;;5100672;28;19969;-86
2022/03/12 07:01:11;;;;;;;;;;;5.50;45.30;;;;;;5102096;28;20396;-86
2022/03/12 07:03:36;;;;;;;;;;;5.40;45.50;;;;;;5110004;28;20392;-86
2022/03/12 07:06:02;;;;;;;;;;;5.40;44.90;;;;;;5114739;28;20010;-86
2022/03/12 07:08:28;;;;;;;;;;;5.50;44.20;;;;;;5115912;28;19950;-86
2022/03/12 07:10:53;;;;;;;;;;;5.40;42.30;;;;;;5106919;28;19912;-86
2022/03/12 07:13:19;;;;;;;;;;;5.40;42.50;;;;;;5106225;28;19967;-86
2022/03/12 07:15:45;;;;;;;;;;;5.40;40.10;;;;;;5099110;28;19919;-86
2022/03/12 07:18:10;;;;;;;;;;;5.40;41.20;;;;;;5092319;28;19919;-86
2022/03/12 07:20:36;;;;;;;;;;;5.40;41.80;;;;;;5100304;28;19916;-86
2022/03/12 07:23:02;;;;;;;;;;;5.40;42.80;;;;;;5109234;28;20561;-86
2022/03/12 07:25:27;;;;;;;;;;;5.40;41.00;;;;;;5096727;28;19920;-86
2022/03/12 07:27:56;;;;;;;;;;;5.40;40.80;;;;;;5094177;28;19913;-85
2022/03/12 07:30:22;;;;;;;;;;;5.40;41.50;;;;;;5102553;28;19994;-85
2022/03/12 07:32:48;;;;;;;;;;;5.50;40.00;;;;;;5108707;28;20023;-86
2022/03/12 07:35:15;;;;;;;;;;;5.40;39.70;;;;;;5101194;28;19912;-86
2022/03/12 07:37:41;;;;;;;;;;;5.40;39.80;;;;;;5108066;28;19935;-86
2022/03/12 07:40:09;;;;;;;;;;;5.40;40.50;;;;;;5104581;28;20002;-86
2022/03/12 07:42:35;;;;;;;;;;;5.50;40.30;;;;;;5095235;28;19912;-85
2022/03/12 07:45:00;;;;;;;;;;;5.60;39.30;;;;;;5098391;28;20414;-85
2022/03/12 07:47:27;;;;;;;;;;;5.70;38.60;;;;;;5103126;28;20032;-85
2022/03/12 07:49:53;;;;;;;;;;;5.80;37.80;;;;;;5076724;28;19916;-86
2022/03/12 07:52:19;;;;;;;;;;;5.80;37.50;;;;;;5100318;28;19927;-86
2022/03/12 07:54:45;;;;;;;;;;;5.90;37.50;;;;;;5106070;28;19912;-86
2022/03/12 07:57:10;;;;;;;;;;;5.90;38.50;;;;;;5097906;28;20161;-86
2022/03/12 07:59:36;;;;;;;;;;;6.00;38.50;;;;;;5097541;28;19916;-86
2022/03/12 08:02:02;;;;;;;;;;;6.10;38.10;;;;;;5096939;28;19943;-86
2022/03/12 08:04:30;;;;;;;;;;;6.10;37.80;;;;;;5093270;28;19919;-86
2022/03/12 08:07:00;;;;;;;;;;;6.10;37.20;;;;;;5080066;28;19973;-86
2022/03/12 08:09:25;;;;;;;;;;;6.20;37.50;;;;;;5091276;28;19935;-86
2022/03/12 08:11:51;;;;;;;;;;;6.40;38.00;;;;;;5095007;28;20377;-86
2022/03/12 08:14:17;;;;;;;;;;;6.40;37.30;;;;;;5084046;28;20377;-86
2022/03/12 08:16:44;;;;;;;;;;;6.50;38.00;;;;;;5082303;28;19916;-86
2022/03/12 08:19:09;;;;;;;;;;;6.60;37.20;;;;;;5090475;28;19912;-86
2022/03/12 08:21:35;;;;;;;;;;;6.70;36.20;;;;;;5086576;28;19913;-86
2022/03/12 08:24:04;;;;;;;;;;;6.80;36.40;;;;;;5083519;28;19944;-86
2022/03/12 08:26:30;;;;;;;;;;;6.80;36.00;;;;;;5085504;28;20281;-86
2022/03/12 08:28:56;;;;;;;;;;;6.70;36.60;;;;;;5087612;28;19969;-86
2022/03/12 08:31:22;;;;;;;;;;;6.60;36.60;;;;;;5085160;28;19916;-86
2022/03/12 08:33:47;;;;;;;;;;;6.70;36.40;;;;;;5077227;28;20103;-86
2022/03/12 08:36:14;;;;;;;;;;;6.70;35.90;;;;;;5085923;28;19920;-86
2022/03/12 08:38:40;;;;;;;;;;;6.70;35.40;;;;;;5075632;28;19974;-86
2022/03/12 08:41:06;;;;;;;;;;;6.70;35.00;;;;;;5082313;28;19912;-86
2022/03/12 08:43:33;;;;;;;;;;;6.70;36.00;;;;;;5080406;28;19919;-86
2022/03/12 08:46:00;;;;;;;;;;;6.70;36.70;;;;;;5082242;28;19912;-86
2022/03/12 08:48:26;;;;;;;;;;;6.70;36.00;;;;;;5086010;28;19931;-86
2022/03/12 08:50:52;;;;;;;;;;;6.80;35.50;;;;;;5084767;28;19912;-86
2022/03/12 08:53:17;;;;;;;;;;;6.90;34.10;;;;;;5088307;28;19920;-86
2022/03/12 08:55:43;;;;;;;;;;;7.10;34.60;;;;;;5084804;28;19916;-86
2022/03/12 08:58:08;;;;;;;;;;;7.20;33.10;;;;;;5081413;28;19920;-86
2022/03/12 09:00:34;;;;;;;;;;;7.30;34.90;;;;;;5083246;28;19957;-86
2022/03/12 09:03:43;;;;;;;;;;;7.30;33.70;;;;;;5105946;27;19916;-86
2022/03/12 09:06:10;;;;;;;;;;;7.40;34.20;;;;;;5087160;28;20291;-86
2022/03/12 09:08:35;;;;;;;;;;;7.40;34.70;;;;;;5082469;28;19917;-86
2022/03/12 09:11:01;;;;;;;;;;;7.40;35.20;;;;;;5064292;28;19920;-86
2022/03/12 09:13:27;;;;;;;;;;;7.30;35.00;;;;;;5066364;28;19970;-86
2022/03/12 09:15:53;;;;;;;;;;;7.40;34.50;;;;;;5065332;28;20011;-86
2022/03/12 09:18:20;;;;;;;;;;;7.50;33.30;;;;;;5066397;28;20577;-86
2022/03/12 09:20:47;;;;;;;;;;;7.50;34.60;;;;;;5068404;28;19912;-86
2022/03/12 09:23:20;;;;;;;;;;;7.50;36.10;;;;;;5068262;28;19917;-86
2022/03/12 09:25:47;;;;;;;;;;;7.60;34.60;;;;;;5069294;28;19913;-86
2022/03/12 09:28:13;;;;;;;;;;;7.60;34.60;;;;;;5065544;28;19919;-86
2022/03/12 09:30:39;;;;;;;;;;;7.70;33.90;;;;;;5067443;28;19912;-86
2022/03/12 09:33:05;;;;;;;;;;;7.70;34.00;;;;;;5069739;28;20290;-86
2022/03/12 09:35:31;;;;;;;;;;;7.70;34.30;;;;;;5073775;28;19959;-86
2022/03/12 09:37:57;;;;;;;;;;;7.90;34.30;;;;;;5066626;28;19921;-86
2022/03/12 09:40:23;;;;;;;;;;;8.00;34.30;;;;;;5062398;28;19919;-86
2022/03/12 09:42:48;;;;;;;;;;;8.10;35.40;;;;;;5066899;28;19962;-86
2022/03/12 09:45:14;;;;;;;;;;;8.20;34.90;;;;;;5070311;28;19962;-86
2022/03/12 09:47:40;;;;;;;;;;;8.40;33.20;;;;;;5065772;28;20396;-86
2022/03/12 09:50:06;;;;;;;;;;;8.50;34.30;;;;;;5062945;28;19912;-86
2022/03/12 09:52:32;;;;;;;;;;;8.60;35.00;;;;;;5068080;28;19923;-86
2022/03/12 09:54:57;;;;;;;;;;;8.60;32.40;;;;;;5067005;28;19912;-86
2022/03/12 09:57:23;;;;;;;;;;;8.60;32.90;;;;;;5066297;28;20437;-86
2022/03/12 09:59:49;;;;;;;;;;;8.70;34.70;;;;;;5062386;28;19920;-86
2022/03/12 10:02:14;;;;;;;;;;;8.80;32.50;;;;;;5068333;28;19927;-86
2022/03/12 10:04:40;;;;;;;;;;;8.90;31.80;;;;;;5068210;28;20000;-86
2022/03/12 10:07:09;;;;;;;;;;;8.90;31.60;;;;;;5068383;28;20429;-86
2022/03/12 10:09:35;;;;;;;;;;;8.90;30.20;;;;;;5065778;28;20011;-86
2022/03/12 10:12:01;;;;;;;;;;;9.00;31.50;;;;;;5064415;28;20005;-86
2022/03/12 10:14:27;;;;;;;;;;;9.10;30.50;;;;;;5050632;28;19913;-86
2022/03/12 10:16:53;;;;;;;;;;;9.30;31.20;;;;;;5051612;28;19919;-86
2022/03/12 10:19:19;;;;;;;;;;;9.30;30.00;;;;;;5051205;28;20367;-86
2022/03/12 10:21:45;;;;;;;;;;;9.30;29.80;;;;;;5053323;28;19920;-86
2022/03/12 10:24:14;;;;;;;;;;;9.50;30.90;;;;;;5053413;28;20639;-86
2022/03/12 10:26:42;;;;;;;;;;;9.50;31.20;;;;;;5050269;28;19947;-86
2022/03/12 10:29:09;;;;;;;;;;;9.60;31.90;;;;;;5052810;28;19968;-86
2022/03/12 10:31:34;;;;;;;;;;;9.60;32.00;;;;;;5050320;28;19920;-86
2022/03/12 10:34:17;;;;;;;;;;;9.60;30.50;;;;;;5052088;28;19913;-87
2022/03/12 10:36:43;;;;;;;;;;;9.60;32.00;;;;;;5052735;28;19945;-86
2022/03/12 10:39:09;;;;;;;;;;;9.60;32.20;;;;;;5048314;28;20586;-86
2022/03/12 10:41:36;;;;;;;;;;;9.70;31.00;;;;;;5053857;28;19917;-86
2022/03/12 10:44:02;;;;;;;;;;;9.80;32.20;;;;;;5046776;28;19946;-86
2022/03/12 10:46:29;;;;;;;;;;;9.90;33.40;;;;;;5051086;28;20382;-86
2022/03/12 10:48:58;;;;;;;;;;;10.10;33.50;;;;;;5048786;28;19923;-86
2022/03/12 10:51:26;;;;;;;;;;;10.40;34.00;;;;;;5051203;28;20509;-86
2022/03/12 10:54:07;;;;;;;;;;;10.60;30.40;;;;;;5049747;28;19939;-86
2022/03/12 10:56:46;;;;;;;;;;;10.70;30.10;;;;;;5046676;28;20014;-87
2022/03/12 10:59:23;;;;;;;;;;;10.70;30.10;;;;;;5052371;28;19913;-86
2022/03/12 11:01:52;;;;;;;;;;;10.60;29.80;;;;;;5047237;28;20007;-86
2022/03/12 11:04:18;;;;;;;;;;;10.40;29.90;;;;;;5049797;28;19913;-86
2022/03/12 11:06:45;;;;;;;;;;;10.20;32.60;;;;;;5051068;28;19920;-86
2022/03/12 11:09:14;;;;;;;;;;;10.20;32.00;;;;;;5043001;28;19913;-86
2022/03/12 11:11:41;;;;;;;;;;;10.20;30.30;;;;;;5046060;28;19920;-86
2022/03/12 11:14:07;;;;;;;;;;;10.30;33.00;;;;;;5048749;28;19913;-86
2022/03/12 11:16:34;;;;;;;;;;;10.60;37.20;;;;;;5050918;28;19921;-86
2022/03/12 11:19:01;;;;;;;;;;;10.90;31.60;;;;;;5052791;28;19913;-86
2022/03/12 11:21:37;;;;;;;;;;;11.20;31.90;;;;;;5050942;28;19913;-86
2022/03/12 11:24:05;;;;;;;;;;;11.30;31.40;;;;;;5047132;28;19971;-87
2022/03/12 11:26:31;;;;;;;;;;;11.50;30.00;;;;;;5048842;28;19928;-86
2022/03/12 11:28:57;;;;;;;;;;;11.80;30.40;;;;;;5051834;28;19913;-87
2022/03/12 11:31:39;;;;;;;;;;;12.00;30.00;;;;;;5052531;28;20478;-87
2022/03/12 11:34:16;;;;;;;;;;;12.20;31.00;;;;;;5054382;28;19920;-87
2022/03/12 11:36:45;;;;;;;;;;;12.20;30.20;;;;;;5054373;28;19909;-86
2022/03/12 11:39:12;;;;;;;;;;;12.40;30.30;;;;;;5054525;28;19909;-86
2022/03/12 11:41:38;;;;;;;;;;;12.40;29.40;;;;;;5054103;28;19909;-87
2022/03/12 11:44:07;;;;;;;;;;;12.60;30.70;;;;;;5054121;28;19916;-86
2022/03/12 11:46:32;;;;;;;;;;;12.60;27.80;;;;;;5054123;28;19909;-86
2022/03/12 11:48:58;;;;;;;;;;;12.30;28.80;;;;;;5054059;28;19954;-86
2022/03/12 11:51:24;;;;;;;;;;;12.10;29.80;;;;;;5053967;28;20379;-87
2022/03/12 11:53:50;;;;;;;;;;;12.20;30.00;;;;;;5053934;28;19915;-87
2022/03/12 11:56:16;;;;;;;;;;;12.60;30.60;;;;;;5053888;28;19915;-87
2022/03/12 11:58:46;;;;;;;;;;;13.10;28.10;;;;;;5054125;28;19916;-87
2022/03/12 12:01:19;;;;;;;;;;;13.50;26.30;;;;;;5053853;28;19916;-86
2022/03/12 12:03:46;;;;;;;;;;;13.90;27.70;;;;;;5053989;28;19925;-86
2022/03/12 12:06:12;;;;;;;;;;;14.10;26.10;;;;;;5053970;28;19909;-87
2022/03/12 12:08:39;;;;;;;;;;;14.40;26.00;;;;;;5053656;28;19938;-87
2022/03/12 12:11:05;;;;;;;;;;;14.60;27.70;;;;;;5053659;28;19916;-87
2022/03/12 12:13:31;;;;;;;;;;;14.80;26.70;;;;;;5053593;28;19909;-87
2022/03/12 12:15:58;;;;;;;;;;;15.10;26.20;;;;;;5053575;28;19909;-87
2022/03/12 12:18:23;;;;;;;;;;;15.10;25.50;;;;;;5053565;28;19916;-87
2022/03/12 12:20:49;;;;;;;;;;;15.40;26.20;;;;;;5053456;28;20299;-87
2022/03/12 12:23:17;;;;;;;;;;;15.80;25.40;;;;;;5053616;28;20004;-87
2022/03/12 12:25:43;;;;;;;;;;;15.90;24.60;;;;;;5053447;28;19913;-87
2022/03/12 12:28:15;;;;;;;;;;;16.40;23.30;;;;;;5053368;28;20259;-87
2022/03/12 12:30:43;;;;;;;;;;;16.70;22.50;;;;;;5053247;28;19987;-87
2022/03/12 12:40:32;;;;;;;;;;;16.70;23.00;;;;;;5131576;27;19912;-88
2022/03/12 12:43:02;;;;;;;;;;;17.40;21.90;;;;;;5122881;27;20373;-87
2022/03/12 12:45:31;;;;;;;;;;;17.90;22.30;;;;;;5131451;27;19907;-87
2022/03/12 12:48:11;;;;;;;;;;;18.10;22.50;;;;;;5131436;27;19907;-87
2022/03/12 12:50:37;;;;;;;;;;;17.50;20.60;;;;;;5131348;27;19914;-87
2022/03/12 12:53:25;;;;;;;;;;;17.40;22.50;;;;;;5131278;27;19999;-87
2022/03/12 12:55:51;;;;;;;;;;;17.60;21.20;;;;;;5131250;27;19922;-87
2022/03/12 12:59:48;;;;;;;;;;;17.90;20.50;;;;;;5111135;27;19919;-88
2022/03/12 13:02:13;;;;;;;;;;;17.70;20.30;;;;;;5111217;28;19955;-88
2022/03/12 13:04:44;;;;;;;;;;;17.90;19.90;;;;;;5110920;28;19908;-88
2022/03/12 13:07:22;;;;;;;;;;;18.30;19.80;;;;;;5110915;28;20154;-88
2022/03/12 13:09:48;;;;;;;;;;;18.50;20.00;;;;;;5109456;28;19912;-88
2022/03/12 13:12:15;;;;;;;;;;;18.50;20.50;;;;;;5110759;28;19981;-88
2022/03/12 13:14:49;;;;;;;;;;;18.60;20.00;;;;;;5111037;28;19908;-88
2022/03/12 13:17:33;;;;;;;;;;;18.90;20.20;;;;;;5110601;28;19908;-88
2022/03/12 13:19:59;;;;;;;;;;;19.20;20.40;;;;;;5110895;28;19958;-88
2022/03/12 13:22:36;;;;;;;;;;;19.10;18.80;;;;;;5110590;28;19912;-88
2022/03/12 13:25:03;;;;;;;;;;;19.00;18.10;;;;;;5110552;28;19915;-88
2022/03/12 13:27:30;;;;;;;;;;;18.80;18.10;;;;;;5110530;28;19912;-88
2022/03/12 13:30:09;;;;;;;;;;;18.70;17.70;;;;;;5110307;28;19908;-88
2022/03/12 13:32:35;;;;;;;;;;;18.90;18.70;;;;;;5110403;28;19908;-88
2022/03/12 13:35:01;;;;;;;;;;;19.30;19.10;;;;;;5110386;28;20416;-88
2022/03/12 13:37:27;;;;;;;;;;;19.30;19.60;;;;;;5110273;28;19908;-88
2022/03/12 13:40:09;;;;;;;;;;;19.70;18.40;;;;;;5110297;28;19912;-88
2022/03/12 13:42:47;;;;;;;;;;;19.70;18.10;;;;;;5110253;28;19915;-88
2022/03/12 13:45:13;;;;;;;;;;;20.40;18.50;;;;;;5110136;28;19915;-88
2022/03/12 13:47:39;;;;;;;;;;;20.50;17.50;;;;;;5110081;28;19915;-88
2022/03/12 13:50:04;;;;;;;;;;;21.00;16.20;;;;;;5110274;28;19908;-88
2022/03/12 13:52:30;;;;;;;;;;;22.10;15.50;;;;;;5110075;28;19912;-88
2022/03/12 13:55:03;;;;;;;;;;;22.20;15.30;;;;;;5109960;28;20362;-88
2022/03/12 13:57:29;;;;;;;;;;;22.20;16.00;;;;;;5109766;28;19933;-88
2022/03/12 14:00:08;;;;;;;;;;;22.00;15.80;;;;;;5109899;28;19969;-88
2022/03/12 14:02:34;;;;;;;;;;;21.10;15.90;;;;;;5109746;28;20277;-88
2022/03/12 14:05:00;;;;;;;;;;;20.70;16.30;;;;;;5109823;28;19915;-88
2022/03/12 14:07:26;;;;;;;;;;;20.80;17.00;;;;;;5109721;28;19908;-89
2022/03/12 14:09:52;;;;;;;;;;;21.60;16.80;;;;;;5102820;28;19908;-89
2022/03/12 14:12:18;;;;;;;;;;;21.80;15.60;;;;;;5096082;28;19908;-88
2022/03/12 14:14:46;;;;;;;;;;;22.60;14.00;;;;;;5096020;28;19912;-88
2022/03/12 14:17:11;;;;;;;;;;;22.90;14.30;;;;;;5096023;28;19962;-89
2022/03/12 14:19:37;;;;;;;;;;;22.70;14.70;;;;;;5095909;28;20368;-88
2022/03/12 14:22:05;;;;;;;;;;;22.30;15.60;;;;;;5095930;28;20384;-88
2022/03/12 14:24:36;;;;;;;;;;;22.90;14.80;;;;;;5095863;28;20266;-88
2022/03/12 14:27:08;;;;;;;;;;;22.60;14.90;;;;;;5095797;28;19912;-88
2022/03/12 14:29:42;;;;;;;;;;;22.40;14.80;;;;;;5095635;28;19912;-88
2022/03/12 14:32:09;;;;;;;;;;;22.40;14.80;;;;;;5095734;28;19950;-88
2022/03/12 14:34:35;;;;;;;;;;;22.50;15.00;;;;;;5095638;28;19908;-88
2022/03/12 14:37:02;;;;;;;;;;;21.90;15.90;;;;;;5095617;28;19912;-88
2022/03/12 14:39:29;;;;;;;;;;;21.90;15.60;;;;;;5095473;28;19919;-88